Time;durP1;ratioP1;P1;durP2;ratioP2;P2;SDS_P1;SDS_P2;PMS_P1;PMS_P2;Temp;Humidity;BMP_temperature;BMP_pressure;BME280_temperature;BME280_humidity;BME280_pressure;Samples;Min_cycle;Max_cycle;Signal;HPM_P1;HPM_P2
2023/07/19 00:00:24;;;;;;;4.60;2.10;;;16.70;99.90;;;;;;5083223;28;20076;-88
2023/07/19 00:02:50;;;;;;;5.13;2.20;;;16.70;99.90;;;;;;5066148;28;20123;-88
2023/07/19 00:05:16;;;;;;;4.57;2.17;;;16.70;99.90;;;;;;5040228;28;20159;-88
2023/07/19 00:07:41;;;;;;;5.78;2.20;;;16.70;99.90;;;;;;5032223;28;20100;-88
2023/07/19 00:10:07;;;;;;;3.83;2.05;;;16.70;99.90;;;;;;5049364;28;20040;-88
2023/07/19 00:12:33;;;;;;;10.25;2.60;;;16.60;99.90;;;;;;5064744;28;20069;-88
2023/07/19 00:14:59;;;;;;;5.95;2.53;;;16.60;99.90;;;;;;5039551;28;20073;-88
2023/07/19 00:17:25;;;;;;;3.95;2.20;;;16.60;99.90;;;;;;5065925;28;20041;-88
2023/07/19 00:19:51;;;;;;;9.30;2.67;;;16.60;99.90;;;;;;5048027;28;20608;-88
2023/07/19 00:22:16;;;;;;;6.40;2.50;;;16.60;99.90;;;;;;5050027;28;20041;-87
2023/07/19 00:24:42;;;;;;;5.00;2.20;;;16.60;99.90;;;;;;5065462;28;20048;-88
2023/07/19 00:27:08;;;;;;;8.68;2.50;;;16.60;99.90;;;;;;5065275;28;20045;-88
2023/07/19 00:29:33;;;;;;;8.50;2.63;;;16.60;99.90;;;;;;5066022;28;20041;-88
2023/07/19 00:31:59;;;;;;;6.93;2.35;;;16.50;99.90;;;;;;5081943;28;20041;-87
2023/07/19 00:34:25;;;;;;;4.88;1.85;;;16.50;99.90;;;;;;5048670;28;20041;-87
2023/07/19 00:36:51;;;;;;;6.90;2.90;;;16.50;99.90;;;;;;5065620;28;20482;-88
2023/07/19 00:39:16;;;;;;;7.63;2.95;;;16.50;99.90;;;;;;5038562;28;20041;-88
2023/07/19 00:41:42;;;;;;;6.10;3.08;;;16.40;99.90;;;;;;5063735;28;20102;-88
2023/07/19 00:44:08;;;;;;;10.05;3.25;;;16.50;99.90;;;;;;5049081;28;20095;-88
2023/07/19 00:46:34;;;;;;;6.68;3.17;;;16.50;99.90;;;;;;5048251;28;20049;-88
2023/07/19 00:49:00;;;;;;;7.35;2.70;;;16.50;99.90;;;;;;5048205;28;20527;-88
2023/07/19 00:51:26;;;;;;;5.78;3.03;;;16.50;99.90;;;;;;5031442;28;20097;-88
2023/07/19 00:53:53;;;;;;;9.38;2.83;;;16.50;99.90;;;;;;5048972;28;20069;-88
2023/07/19 00:56:20;;;;;;;7.47;3.00;;;16.50;99.90;;;;;;5029920;28;20051;-88
2023/07/19 00:58:49;;;;;;;6.22;2.95;;;16.50;99.90;;;;;;5049793;28;20517;-88
2023/07/19 01:01:15;;;;;;;6.50;2.92;;;16.50;99.90;;;;;;5051998;28;20566;-88
2023/07/19 01:03:41;;;;;;;7.10;3.00;;;16.50;99.90;;;;;;5063821;28;20051;-88
2023/07/19 01:06:07;;;;;;;8.75;3.28;;;16.50;99.90;;;;;;5048383;28;20401;-88
2023/07/19 01:08:33;;;;;;;8.43;2.90;;;16.50;99.90;;;;;;5047632;28;20040;-88
2023/07/19 01:10:59;;;;;;;8.48;3.25;;;16.50;99.90;;;;;;5081009;28;20045;-88
2023/07/19 01:13:25;;;;;;;7.45;3.22;;;16.50;99.90;;;;;;5049294;28;20041;-87
2023/07/19 01:15:51;;;;;;;5.28;2.65;;;16.50;99.90;;;;;;5030985;28;20078;-87
2023/07/19 01:18:20;;;;;;;5.57;2.92;;;16.50;99.90;;;;;;5031244;28;20041;-88
2023/07/19 01:20:46;;;;;;;9.45;2.90;;;16.50;99.90;;;;;;5064520;28;20041;-88
2023/07/19 01:23:12;;;;;;;8.90;3.00;;;16.60;99.90;;;;;;5064412;28;20068;-88
2023/07/19 01:25:38;;;;;;;7.28;2.67;;;16.50;99.90;;;;;;5056348;28;20080;-88
2023/07/19 01:28:04;;;;;;;9.23;3.33;;;16.50;99.90;;;;;;5026118;28;20056;-89
2023/07/19 01:30:30;;;;;;;7.97;3.40;;;16.50;99.90;;;;;;5063230;28;20360;-88
2023/07/19 01:32:55;;;;;;;6.00;2.83;;;16.50;99.90;;;;;;5036589;28;20090;-88
2023/07/19 01:35:22;;;;;;;5.60;2.53;;;16.50;99.90;;;;;;5047800;28;20138;-88
2023/07/19 01:37:48;;;;;;;6.97;2.75;;;16.60;99.90;;;;;;5046360;28;20044;-88
2023/07/19 01:40:14;;;;;;;5.13;2.33;;;16.60;99.90;;;;;;5048460;28;20179;-88
2023/07/19 01:42:40;;;;;;;4.90;2.60;;;16.60;99.90;;;;;;5046636;28;20124;-88
2023/07/19 01:45:06;;;;;;;7.32;2.55;;;16.60;99.90;;;;;;5064425;28;20049;-88
2023/07/19 01:47:32;;;;;;;7.05;2.97;;;16.60;99.90;;;;;;5051010;28;20041;-88
2023/07/19 01:49:58;;;;;;;6.78;3.25;;;16.50;99.90;;;;;;5064454;28;20052;-88
2023/07/19 01:52:23;;;;;;;7.75;2.95;;;16.60;99.90;;;;;;5080466;28;20041;-88
2023/07/19 01:54:50;;;;;;;7.43;3.03;;;16.50;99.90;;;;;;5031578;28;20055;-88
2023/07/19 01:57:15;;;;;;;6.13;2.83;;;16.50;99.90;;;;;;5067647;28;20037;-89
2023/07/19 01:59:41;;;;;;;9.43;2.90;;;16.50;99.90;;;;;;5047319;28;20392;-88
2023/07/19 02:02:07;;;;;;;7.15;2.88;;;16.50;99.90;;;;;;5031043;28;20048;-88
2023/07/19 02:04:32;;;;;;;4.45;2.72;;;16.50;99.90;;;;;;5057282;28;20124;-88
2023/07/19 02:06:58;;;;;;;6.10;3.10;;;16.50;99.90;;;;;;5023477;28;20107;-88
2023/07/19 02:09:24;;;;;;;11.38;3.55;;;16.50;99.90;;;;;;5081770;28;20072;-88
2023/07/19 02:11:50;;;;;;;10.65;2.97;;;16.40;99.90;;;;;;5063748;28;20139;-88
2023/07/19 02:14:15;;;;;;;5.80;3.10;;;16.40;99.90;;;;;;5080464;28;20596;-88
2023/07/19 02:16:41;;;;;;;8.65;3.55;;;16.40;99.90;;;;;;5046999;28;20064;-88
2023/07/19 02:19:07;;;;;;;8.07;3.50;;;16.40;99.90;;;;;;5047824;28;20047;-88
2023/07/19 02:21:33;;;;;;;6.65;3.38;;;16.30;99.90;;;;;;5046975;28;20041;-89
2023/07/19 02:23:59;;;;;;;10.32;3.65;;;16.40;99.90;;;;;;5081422;28;20044;-89
2023/07/19 02:26:25;;;;;;;7.07;3.85;;;16.30;99.90;;;;;;5080315;28;20040;-89
2023/07/19 02:28:51;;;;;;;8.80;3.80;;;16.30;99.90;;;;;;5063986;28;20587;-89
2023/07/19 02:31:18;;;;;;;7.15;3.58;;;16.40;99.90;;;;;;5063285;28;20051;-88
2023/07/19 02:33:43;;;;;;;9.13;3.70;;;16.30;99.90;;;;;;5046866;28;20037;-88
2023/07/19 02:36:12;;;;;;;7.65;3.30;;;16.30;99.90;;;;;;5030718;28;20127;-88
2023/07/19 02:38:38;;;;;;;6.65;3.40;;;16.30;99.90;;;;;;5030168;28;20108;-88
2023/07/19 02:41:04;;;;;;;6.43;3.53;;;16.30;99.90;;;;;;5045757;28;20063;-88
2023/07/19 02:43:30;;;;;;;6.90;3.58;;;16.30;99.90;;;;;;5042474;28;20061;-89
2023/07/19 02:45:56;;;;;;;7.53;3.22;;;16.20;99.90;;;;;;5063357;28;20052;-88
2023/07/19 02:48:22;;;;;;;11.57;3.42;;;16.20;99.90;;;;;;5080369;28;20094;-89
2023/07/19 02:50:49;;;;;;;8.85;3.40;;;16.20;99.90;;;;;;5080242;28;20514;-88
2023/07/19 02:53:15;;;;;;;10.13;3.95;;;16.10;99.90;;;;;;5047195;28;20066;-89
2023/07/19 02:55:45;;;;;;;6.63;4.00;;;16.10;99.90;;;;;;5029154;28;20060;-88
2023/07/19 02:58:11;;;;;;;8.45;4.18;;;16.10;99.90;;;;;;5030870;28;20220;-88
2023/07/19 03:00:42;;;;;;;7.50;3.40;;;16.10;99.90;;;;;;5062707;28;20045;-88
2023/07/19 03:03:11;;;;;;;12.32;4.30;;;16.10;99.90;;;;;;5080361;28;20065;-88
2023/07/19 03:05:40;;;;;;;9.18;4.45;;;16.10;99.90;;;;;;5046216;28;20492;-88
2023/07/19 03:08:09;;;;;;;12.20;5.05;;;16.10;99.90;;;;;;5063871;28;20317;-89
2023/07/19 03:10:36;;;;;;;10.20;4.65;;;16.10;99.90;;;;;;5065789;28;20484;-88
2023/07/19 03:13:02;;;;;;;10.45;4.63;;;16.10;99.90;;;;;;5030131;28;20308;-89
2023/07/19 03:15:33;;;;;;;9.40;4.28;;;16.10;99.90;;;;;;5078514;28;20156;-88
2023/07/19 03:18:00;;;;;;;7.68;4.35;;;16.10;99.90;;;;;;5081672;28;20080;-87
2023/07/19 03:20:27;;;;;;;8.77;4.80;;;16.10;99.90;;;;;;5033613;28;20146;-88
2023/07/19 03:22:55;;;;;;;8.65;4.60;;;16.10;99.90;;;;;;5066525;28;20041;-88
2023/07/19 03:25:20;;;;;;;14.32;4.38;;;16.10;99.90;;;;;;5062105;28;20054;-88
2023/07/19 03:27:46;;;;;;;10.27;4.18;;;16.10;99.90;;;;;;5025579;28;20063;-89
2023/07/19 03:30:13;;;;;;;10.05;4.30;;;16.10;99.90;;;;;;5082990;28;20061;-88
2023/07/19 03:32:39;;;;;;;8.75;4.30;;;16.10;99.90;;;;;;5050326;28;20163;-88
2023/07/19 03:35:05;;;;;;;8.50;4.03;;;16.20;99.90;;;;;;5034294;28;20147;-88
2023/07/19 03:37:31;;;;;;;13.15;4.30;;;16.20;99.90;;;;;;5065969;28;20583;-88
2023/07/19 03:39:57;;;;;;;8.50;4.00;;;16.20;99.90;;;;;;5065162;28;20060;-89
2023/07/19 03:42:22;;;;;;;8.43;4.03;;;16.20;99.90;;;;;;5083742;28;20498;-88
2023/07/19 03:44:48;;;;;;;10.15;4.22;;;16.20;99.90;;;;;;5066398;28;20041;-89
2023/07/19 03:47:14;;;;;;;10.38;4.25;;;16.20;99.90;;;;;;5050665;28;20052;-88
2023/07/19 03:49:39;;;;;;;12.35;4.50;;;16.20;99.90;;;;;;5061482;28;20196;-89
2023/07/19 03:52:06;;;;;;;8.10;4.20;;;16.20;99.90;;;;;;5024951;28;20082;-89
2023/07/19 03:54:31;;;;;;;11.43;4.82;;;16.30;99.90;;;;;;5084103;28;20048;-89
2023/07/19 03:56:57;;;;;;;9.77;4.45;;;16.20;99.90;;;;;;5065819;28;20490;-89
2023/07/19 03:59:23;;;;;;;9.25;4.65;;;16.30;99.90;;;;;;5065744;28;20095;-89
2023/07/19 04:01:48;;;;;;;11.27;4.55;;;16.20;99.90;;;;;;5082910;28;20046;-88
2023/07/19 04:04:14;;;;;;;8.70;4.50;;;16.20;99.90;;;;;;5083580;28;20069;-89
2023/07/19 04:06:40;;;;;;;13.98;5.53;;;16.30;99.90;;;;;;5065769;28;20049;-88
2023/07/19 04:09:05;;;;;;;9.90;4.88;;;16.20;99.90;;;;;;5066665;28;20051;-89
2023/07/19 04:11:31;;;;;;;15.50;5.18;;;16.20;99.90;;;;;;5032898;28;20084;-88
2023/07/19 04:13:57;;;;;;;8.90;5.03;;;16.20;99.90;;;;;;5064686;28;20079;-88
2023/07/19 04:16:23;;;;;;;10.90;5.13;;;16.20;99.90;;;;;;5045765;28;20048;-88
2023/07/19 04:18:48;;;;;;;9.38;5.20;;;16.20;99.90;;;;;;5032507;28;20040;-88
2023/07/19 04:21:14;;;;;;;9.32;5.80;;;16.30;99.90;;;;;;5032301;28;20686;-88
2023/07/19 04:23:40;;;;;;;15.38;5.45;;;16.30;99.90;;;;;;5034212;28;20055;-88
2023/07/19 04:26:06;;;;;;;12.63;5.40;;;16.30;99.90;;;;;;5031670;28;20041;-88
2023/07/19 04:28:31;;;;;;;12.95;5.85;;;16.30;99.90;;;;;;5064063;28;20160;-88
2023/07/19 04:30:57;;;;;;;15.80;5.47;;;16.30;99.90;;;;;;5061706;28;20416;-88
2023/07/19 04:33:23;;;;;;;10.65;5.95;;;16.30;99.90;;;;;;5072285;28;20029;-88
2023/07/19 04:35:50;;;;;;;10.88;5.10;;;16.40;99.90;;;;;;5081668;28;20045;-88
2023/07/19 04:38:16;;;;;;;8.38;6.05;;;16.40;99.90;;;;;;5031050;28;20033;-87
2023/07/19 04:40:42;;;;;;;11.77;6.47;;;16.50;99.90;;;;;;5060965;28;20119;-88
2023/07/19 04:43:08;;;;;;;15.75;6.30;;;16.50;99.90;;;;;;5036152;28;20045;-88
2023/07/19 04:45:33;;;;;;;11.43;5.88;;;16.50;99.90;;;;;;5079968;28;20048;-87
2023/07/19 04:47:59;;;;;;;11.32;5.32;;;16.60;99.90;;;;;;5046997;28;20037;-88
2023/07/19 04:50:25;;;;;;;13.85;6.28;;;16.60;99.90;;;;;;5046544;28;20114;-88
2023/07/19 04:52:51;;;;;;;8.05;4.68;;;16.60;99.90;;;;;;5031027;28;20560;-89
2023/07/19 04:55:17;;;;;;;11.68;5.20;;;16.60;99.90;;;;;;5048296;28;20551;-89
2023/07/19 04:57:43;;;;;;;14.60;5.50;;;16.70;99.90;;;;;;5034582;28;20125;-88
2023/07/19 05:00:11;;;;;;;11.05;4.95;;;16.70;99.90;;;;;;5041696;28;20041;-89
2023/07/19 05:02:43;;;;;;;13.00;5.07;;;16.70;99.90;;;;;;5031863;28;20032;-89
2023/07/19 05:05:09;;;;;;;12.40;5.40;;;16.70;99.90;;;;;;5048676;28;20049;-89
2023/07/19 05:07:37;;;;;;;8.57;4.63;;;16.70;99.90;;;;;;5032243;28;20051;-89
2023/07/19 05:10:04;;;;;;;10.50;4.88;;;16.70;99.90;;;;;;5032287;28;20490;-89
2023/07/19 05:12:30;;;;;;;8.57;4.57;;;16.80;99.90;;;;;;5030943;28;20041;-88
2023/07/19 05:14:56;;;;;;;10.15;4.50;;;16.80;99.90;;;;;;5032350;28;20119;-88
2023/07/19 05:17:22;;;;;;;10.65;4.43;;;16.80;99.90;;;;;;5031013;28;20174;-87
2023/07/19 05:19:48;;;;;;;8.32;4.57;;;16.80;99.90;;;;;;5048475;28;20044;-88
2023/07/19 05:22:14;;;;;;;9.88;4.85;;;16.80;99.90;;;;;;5031321;28;20197;-89
2023/07/19 05:24:40;;;;;;;8.60;4.30;;;16.80;99.90;;;;;;5047956;28;20045;-88
2023/07/19 05:27:06;;;;;;;10.70;4.57;;;16.80;99.90;;;;;;5032145;28;20037;-88
2023/07/19 05:29:32;;;;;;;10.43;4.10;;;16.90;99.90;;;;;;5081360;28;20048;-89
2023/07/19 05:31:58;;;;;;;7.80;3.70;;;16.90;99.90;;;;;;5058343;28;20159;-88
2023/07/19 05:34:24;;;;;;;12.02;3.65;;;17.00;99.90;;;;;;5024725;28;20532;-88
2023/07/19 05:36:50;;;;;;;7.72;3.53;;;17.00;99.90;;;;;;5047398;28;20143;-89
2023/07/19 05:39:15;;;;;;;9.35;3.58;;;17.00;99.90;;;;;;5065034;28;20099;-88
2023/07/19 05:41:41;;;;;;;7.00;3.60;;;17.00;99.90;;;;;;5075278;28;20053;-88
2023/07/19 05:44:07;;;;;;;7.30;3.17;;;17.10;99.90;;;;;;5040805;28;20377;-88
2023/07/19 05:46:36;;;;;;;7.63;3.58;;;17.10;99.90;;;;;;5064063;28;20040;-88
2023/07/19 05:49:03;;;;;;;7.88;3.83;;;17.10;99.90;;;;;;5081082;28;20056;-88
2023/07/19 05:51:29;;;;;;;11.38;3.88;;;17.10;99.90;;;;;;5063203;28;20080;-88
2023/07/19 05:53:54;;;;;;;11.77;4.10;;;17.10;99.90;;;;;;5031329;28;20074;-88
2023/07/19 05:56:21;;;;;;;9.00;4.18;;;17.10;99.90;;;;;;5031113;28;20053;-87
2023/07/19 05:58:47;;;;;;;12.10;4.05;;;17.10;99.90;;;;;;5047344;28;20040;-88
2023/07/19 06:01:17;;;;;;;14.35;3.75;;;17.10;99.90;;;;;;5063582;28;20164;-88
2023/07/19 06:03:44;;;;;;;15.93;3.47;;;17.10;99.90;;;;;;5030591;28;20128;-89
2023/07/19 06:06:10;;;;;;;12.55;3.55;;;17.20;99.90;;;;;;5063410;28;20044;-88
2023/07/19 06:08:36;;;;;;;13.48;2.95;;;17.20;99.90;;;;;;5048019;28;20048;-88
2023/07/19 06:11:02;;;;;;;9.68;3.20;;;17.20;99.90;;;;;;5079591;28;20055;-88
2023/07/19 06:13:28;;;;;;;8.15;2.88;;;17.20;99.90;;;;;;5052879;28;20048;-89
2023/07/19 06:15:54;;;;;;;8.32;3.25;;;17.20;99.90;;;;;;5060730;28;20470;-87
2023/07/19 06:18:20;;;;;;;9.35;3.20;;;17.20;99.90;;;;;;5046139;28;20115;-88
2023/07/19 06:20:48;;;;;;;10.13;2.78;;;17.10;99.90;;;;;;5014720;28;20047;-88
2023/07/19 06:23:20;;;;;;;6.80;2.85;;;17.00;99.90;;;;;;5048911;28;20037;-90
2023/07/19 06:25:49;;;;;;;7.85;2.60;;;17.10;99.90;;;;;;5049212;28;20146;-88
2023/07/19 06:28:16;;;;;;;8.90;2.28;;;17.00;99.90;;;;;;5031504;28;20056;-88
2023/07/19 06:30:45;;;;;;;9.38;2.00;;;16.90;99.90;;;;;;5031362;28;20071;-89
2023/07/19 06:33:13;;;;;;;7.68;2.08;;;16.90;99.90;;;;;;5031934;28;20055;-88
2023/07/19 06:35:39;;;;;;;4.10;1.60;;;16.90;99.90;;;;;;5080854;28;20551;-88
2023/07/19 06:38:05;;;;;;;7.25;1.92;;;16.90;99.90;;;;;;5034819;28;20037;-88
2023/07/19 06:40:31;;;;;;;6.53;1.65;;;16.90;99.90;;;;;;5080523;28;20044;-88
2023/07/19 06:42:57;;;;;;;5.65;1.40;;;16.90;99.90;;;;;;5076893;28;20074;-89
2023/07/19 06:45:26;;;;;;;6.70;1.60;;;17.00;99.90;;;;;;5054610;28;20468;-88
2023/07/19 06:47:52;;;;;;;15.63;1.65;;;17.00;99.90;;;;;;5057942;28;20148;-94
2023/07/19 06:50:21;;;;;;;4.28;1.13;;;17.00;99.90;;;;;;5050421;28;20106;-93
2023/07/19 06:52:48;;;;;;;6.22;1.52;;;17.10;99.90;;;;;;5049445;28;20048;-95
2023/07/19 06:55:14;;;;;;;6.43;1.80;;;17.10;99.90;;;;;;5032831;28;20049;-92
2023/07/19 06:57:40;;;;;;;8.68;1.70;;;17.20;99.90;;;;;;5031764;28;20037;-92
2023/07/19 07:00:06;;;;;;;8.50;1.65;;;17.20;99.90;;;;;;5024962;28;20486;-92
2023/07/19 07:02:32;;;;;;;7.95;1.70;;;17.30;99.90;;;;;;5065737;28;20056;-93
2023/07/19 07:04:57;;;;;;;5.88;1.35;;;17.30;99.90;;;;;;5057717;28;20049;-94
2023/07/19 07:07:25;;;;;;;8.73;2.25;;;17.40;99.90;;;;;;5081993;28;20037;-96
2023/07/19 07:09:50;;;;;;;10.55;1.92;;;17.40;99.90;;;;;;5050291;28;20455;-95
2023/07/19 07:12:16;;;;;;;10.05;2.10;;;17.50;99.90;;;;;;5036139;28;20041;-87
2023/07/19 07:14:42;;;;;;;6.25;1.73;;;17.60;99.90;;;;;;5057716;28;20191;-88
2023/07/19 07:17:09;;;;;;;9.77;2.10;;;17.60;99.90;;;;;;5043537;28;20053;-89
2023/07/19 07:19:34;;;;;;;8.23;2.15;;;17.80;99.90;;;;;;5078301;28;20403;-87
2023/07/19 07:22:00;;;;;;;8.30;1.98;;;17.90;99.90;;;;;;5027344;28;20049;-88
2023/07/19 07:24:26;;;;;;;7.13;2.40;;;18.00;99.90;;;;;;5058860;28;20555;-89
2023/07/19 07:26:51;;;;;;;9.60;2.47;;;18.10;99.90;;;;;;5029896;28;20056;-89
2023/07/19 07:29:17;;;;;;;5.05;1.70;;;18.20;99.90;;;;;;5041728;28;20390;-89
2023/07/19 07:31:43;;;;;;;6.43;2.03;;;18.30;99.90;;;;;;5045790;28;20393;-89
2023/07/19 07:34:09;;;;;;;10.30;2.13;;;18.40;99.90;;;;;;5061662;28;20045;-89
2023/07/19 07:36:35;;;;;;;6.15;1.70;;;18.50;99.90;;;;;;5059650;28;20044;-88
2023/07/19 07:39:01;;;;;;;6.22;1.30;;;18.50;99.90;;;;;;5061422;28;20041;-88
2023/07/19 07:41:27;;;;;;;3.83;1.30;;;18.50;99.90;;;;;;5026827;28;20477;-88
2023/07/19 07:43:53;;;;;;;7.85;1.80;;;18.40;99.90;;;;;;5076573;28;20044;-89
2023/07/19 07:46:18;;;;;;;5.60;1.60;;;18.40;99.90;;;;;;5059919;28;20546;-87
2023/07/19 07:48:44;;;;;;;5.28;1.30;;;18.50;99.90;;;;;;5027435;28;20045;-89
2023/07/19 07:51:11;;;;;;;5.63;1.38;;;18.60;99.90;;;;;;5043749;28;20102;-88
2023/07/19 07:53:37;;;;;;;5.15;1.02;;;18.60;99.90;;;;;;5043848;28;20453;-90
2023/07/19 07:56:03;;;;;;;7.03;2.15;;;18.70;99.90;;;;;;5043953;28;20039;-89
2023/07/19 07:58:29;;;;;;;7.18;1.38;;;18.80;99.90;;;;;;5027279;28;20048;-88
2023/07/19 08:00:55;;;;;;;3.42;1.00;;;18.90;99.90;;;;;;5043824;28;20044;-89
2023/07/19 08:03:20;;;;;;;6.68;1.45;;;18.90;99.90;;;;;;5028215;28;20079;-89
2023/07/19 08:05:49;;;;;;;17.92;1.48;;;19.00;99.90;;;;;;5045399;28;20037;-88
2023/07/19 08:08:15;;;;;;;8.43;1.77;;;19.10;99.90;;;;;;5067371;28;20041;-89
2023/07/19 08:10:41;;;;;;;7.85;1.52;;;19.10;99.90;;;;;;5061622;28;20052;-88
2023/07/19 08:13:07;;;;;;;6.45;1.50;;;19.20;99.90;;;;;;5024130;28;20041;-90
2023/07/19 08:15:34;;;;;;;5.75;1.30;;;19.20;99.90;;;;;;5065858;28;20337;-88
2023/07/19 08:18:00;;;;;;;8.55;1.48;;;19.10;99.90;;;;;;5082925;28;20045;-89
2023/07/19 08:20:26;;;;;;;6.82;1.63;;;19.00;99.90;;;;;;5066508;28;20067;-89
2023/07/19 08:22:52;;;;;;;9.63;1.50;;;19.00;99.90;;;;;;5033545;28;20053;-89
2023/07/19 08:25:21;;;;;;;6.20;1.50;;;19.00;99.90;;;;;;5052718;28;20076;-89
2023/07/19 08:27:48;;;;;;;5.88;1.35;;;19.00;99.90;;;;;;5082773;28;20067;-89
2023/07/19 08:30:15;;;;;;;5.13;1.40;;;19.10;99.90;;;;;;5032588;28;20127;-88
2023/07/19 08:32:50;;;;;;;8.95;2.00;;;19.30;99.90;;;;;;5048583;28;20041;-88
2023/07/19 08:35:16;;;;;;;12.32;2.22;;;19.30;99.90;;;;;;5066046;28;20045;-88
2023/07/19 08:37:46;;;;;;;6.50;1.63;;;19.50;99.90;;;;;;5032246;28;20493;-88
2023/07/19 08:40:16;;;;;;;7.35;1.45;;;19.60;99.90;;;;;;5031336;28;20084;-88
2023/07/19 08:42:43;;;;;;;4.97;1.42;;;19.80;99.90;;;;;;5064553;28;20424;-87
2023/07/19 08:45:11;;;;;;;7.82;1.95;;;20.00;99.90;;;;;;5049599;28;20036;-88
2023/07/19 08:47:41;;;;;;;7.57;1.55;;;20.10;99.90;;;;;;5047979;28;20496;-88
2023/07/19 08:50:09;;;;;;;4.43;1.15;;;20.10;99.90;;;;;;5032530;28;20131;-87
2023/07/19 08:52:35;;;;;;;4.88;0.98;;;20.00;99.90;;;;;;5051708;28;20140;-88
2023/07/19 08:55:03;;;;;;;6.82;1.15;;;20.00;99.90;;;;;;5081814;28;20438;-88
2023/07/19 08:57:29;;;;;;;4.63;1.10;;;20.10;99.90;;;;;;5048249;28;20049;-88
2023/07/19 08:59:55;;;;;;;10.85;1.08;;;20.20;99.90;;;;;;5031776;28;20043;-88
2023/07/19 09:02:21;;;;;;;6.65;1.05;;;20.40;99.90;;;;;;5080505;28;20090;-88
2023/07/19 09:05:09;;;;;;;5.00;1.15;;;20.50;99.90;;;;;;5081940;28;20040;-88
2023/07/19 09:07:36;;;;;;;6.07;1.10;;;20.50;99.90;;;;;;5083414;28;20039;-89
2023/07/19 09:10:05;;;;;;;8.27;1.00;;;20.40;99.90;;;;;;5066765;28;20076;-90
2023/07/19 09:12:42;;;;;;;5.18;1.02;;;20.20;99.90;;;;;;5062014;28;20488;-91
2023/07/19 09:15:09;;;;;;;9.20;1.30;;;19.90;99.90;;;;;;5057213;28;20048;-91
2023/07/19 09:17:44;;;;;;;4.00;1.00;;;19.70;99.90;;;;;;5083698;28;20087;-91
2023/07/19 09:20:11;;;;;;;12.27;1.60;;;19.60;99.90;;;;;;5062809;28;20045;-90
2023/07/19 09:22:38;;;;;;;5.82;1.30;;;19.50;99.90;;;;;;5066514;28;20037;-90
2023/07/19 09:25:09;;;;;;;4.63;1.25;;;19.50;99.90;;;;;;5064027;28;20517;-90
2023/07/19 09:27:35;;;;;;;8.30;1.75;;;19.50;99.90;;;;;;5043023;28;20492;-89
2023/07/19 09:30:04;;;;;;;4.35;1.00;;;19.60;99.90;;;;;;5079817;28;20075;-90
2023/07/19 09:32:30;;;;;;;4.95;1.10;;;19.70;99.90;;;;;;5056562;28;20042;-89
2023/07/19 09:34:58;;;;;;;4.50;1.27;;;19.90;99.90;;;;;;5066583;28;20037;-89
2023/07/19 09:37:25;;;;;;;8.50;1.70;;;20.00;99.90;;;;;;5066736;28;20076;-90
2023/07/19 09:39:54;;;;;;;5.43;1.10;;;20.10;99.90;;;;;;5066550;28;20041;-89
2023/07/19 09:42:20;;;;;;;9.13;1.63;;;20.10;99.90;;;;;;5032409;28;20056;-90
2023/07/19 09:44:47;;;;;;;5.40;1.33;;;20.00;99.90;;;;;;5083376;28;20037;-88
2023/07/19 09:47:14;;;;;;;5.05;1.23;;;19.70;99.90;;;;;;5066256;28;20055;-88
2023/07/19 09:49:40;;;;;;;5.47;1.10;;;19.60;99.90;;;;;;5082503;28;20045;-88
2023/07/19 09:52:07;;;;;;;6.30;1.35;;;19.60;99.90;;;;;;5048733;28;20045;-88
2023/07/19 09:54:33;;;;;;;7.85;2.28;;;19.70;99.90;;;;;;5060783;28;20045;-89
2023/07/19 09:57:00;;;;;;;2.55;0.98;;;19.80;99.90;;;;;;5043100;28;20040;-88
2023/07/19 09:59:27;;;;;;;4.72;1.35;;;20.00;99.90;;;;;;5049090;28;20044;-88
2023/07/19 10:01:53;;;;;;;4.28;1.42;;;19.90;99.90;;;;;;5082715;28;20071;-88
2023/07/19 10:04:26;;;;;;;5.78;1.05;;;19.90;99.90;;;;;;5076963;28;20045;-89
2023/07/19 10:07:09;;;;;;;4.07;0.88;;;19.90;99.90;;;;;;5027956;28;20106;-88
2023/07/19 10:09:46;;;;;;;9.65;1.40;;;20.20;99.90;;;;;;5072513;28;20408;-87
2023/07/19 10:12:17;;;;;;;5.18;0.88;;;20.40;99.90;;;;;;5032267;28;20116;-88
2023/07/19 10:15:04;;;;;;;7.32;1.25;;;20.70;99.90;;;;;;5031332;28;20041;-90
2023/07/19 10:17:41;;;;;;;2.83;0.90;;;21.00;99.90;;;;;;5054931;28;20101;-89
2023/07/19 10:20:10;;;;;;;3.83;1.00;;;21.10;99.90;;;;;;5033009;28;20060;-89
2023/07/19 10:22:58;;;;;;;4.43;1.05;;;21.10;99.90;;;;;;5048318;28;20046;-90
2023/07/19 10:25:38;;;;;;;6.82;1.25;;;20.80;99.90;;;;;;5054703;28;20413;-89
2023/07/19 10:28:10;;;;;;;6.00;0.90;;;20.60;99.90;;;;;;5046710;28;20131;-87
2023/07/19 10:30:50;;;;;;;3.03;0.80;;;20.50;99.90;;;;;;5030363;28;20066;-88
2023/07/19 10:33:30;;;;;;;8.73;1.23;;;20.30;99.90;;;;;;5024908;28;20284;-87
2023/07/19 10:36:05;;;;;;;5.50;1.08;;;20.20;99.90;;;;;;5034796;28;20554;-89
2023/07/19 10:38:32;;;;;;;4.07;1.10;;;20.30;99.90;;;;;;5081058;28;20132;-88
2023/07/19 10:41:05;;;;;;;5.07;0.98;;;20.50;99.90;;;;;;5079544;28;20628;-88
2023/07/19 10:43:32;;;;;;;6.85;1.33;;;20.60;99.90;;;;;;5035178;28;20469;-88
2023/07/19 10:46:03;;;;;;;4.35;0.90;;;20.70;99.90;;;;;;5063328;28;20135;-88
2023/07/19 10:48:32;;;;;;;4.07;0.70;;;20.70;99.90;;;;;;5081093;28;20444;-88
2023/07/19 10:51:03;;;;;;;4.13;1.05;;;20.50;99.90;;;;;;5024777;28;20653;-86
2023/07/19 10:53:31;;;;;;;3.95;0.93;;;20.20;99.90;;;;;;5060583;28;20037;-89
2023/07/19 10:56:01;;;;;;;3.88;1.00;;;20.10;99.90;;;;;;5048299;28;20053;-88
2023/07/19 10:58:26;;;;;;;2.95;0.90;;;19.90;99.90;;;;;;5031226;28;20132;-88
2023/07/19 11:00:53;;;;;;;4.00;0.75;;;19.80;99.90;;;;;;5055949;28;20136;-90
2023/07/19 11:03:23;;;;;;;3.45;0.90;;;19.90;99.90;;;;;;5047642;28;20037;-89
2023/07/19 11:05:51;;;;;;;2.83;0.90;;;20.20;99.90;;;;;;5062347;28;20159;-89
2023/07/19 11:08:26;;;;;;;10.60;0.77;;;20.60;99.90;;;;;;5027910;28;20046;-90
2023/07/19 11:10:54;;;;;;;4.57;0.65;;;20.80;99.90;;;;;;5028524;28;20044;-88
2023/07/19 11:13:22;;;;;;;4.45;0.80;;;20.90;99.90;;;;;;5063510;28;20041;-87
2023/07/19 11:15:53;;;;;;;4.82;1.00;;;21.00;99.90;;;;;;5061239;28;20045;-90
2023/07/19 11:18:23;;;;;;;5.50;0.70;;;21.00;99.90;;;;;;5045732;28;20068;-85
2023/07/19 11:20:49;;;;;;;4.55;0.80;;;20.90;99.90;;;;;;5049957;28;20045;-89
2023/07/19 11:23:15;;;;;;;2.38;0.73;;;20.80;99.90;;;;;;5030079;28;20048;-90
2023/07/19 11:25:41;;;;;;;2.38;0.50;;;20.70;99.90;;;;;;5078012;28;20475;-88
2023/07/19 11:28:07;;;;;;;3.30;0.75;;;20.70;99.90;;;;;;5044749;28;20138;-89
2023/07/19 11:30:40;;;;;;;2.83;0.60;;;20.70;99.90;;;;;;5055307;28;20076;-90
2023/07/19 11:33:09;;;;;;;4.35;0.75;;;20.80;99.90;;;;;;5046770;28;20045;-89
2023/07/19 11:35:36;;;;;;;1.50;0.43;;;21.00;99.90;;;;;;5060399;28;20069;-88
2023/07/19 11:38:02;;;;;;;5.13;0.65;;;21.00;99.90;;;;;;5072813;28;20059;-89
2023/07/19 11:40:28;;;;;;;2.67;0.60;;;21.20;99.90;;;;;;5060606;28;20470;-86
2023/07/19 11:42:56;;;;;;;6.43;0.60;;;21.20;99.90;;;;;;5046833;28;20070;-86
2023/07/19 11:45:25;;;;;;;3.78;0.70;;;21.00;99.90;;;;;;5080422;28;20111;-85
2023/07/19 11:47:57;;;;;;;1.50;0.47;;;20.90;99.90;;;;;;5063346;28;20340;-87
2023/07/19 11:50:23;;;;;;;1.15;0.50;;;21.10;99.90;;;;;;5062131;28;20504;-89
2023/07/19 11:53:00;;;;;;;4.88;0.90;;;21.30;99.90;;;;;;5029699;28;20036;-86
2023/07/19 11:55:26;;;;;;;2.95;0.60;;;21.40;99.90;;;;;;5039912;28;20487;-86
2023/07/19 11:57:53;;;;;;;3.05;0.63;;;21.50;99.90;;;;;;5029488;28;20461;-86
2023/07/19 12:00:23;;;;;;;2.75;0.60;;;21.70;99.90;;;;;;5047296;28;20085;-86
2023/07/19 12:02:51;;;;;;;4.50;0.80;;;21.80;99.90;;;;;;5066872;28;20040;-87
2023/07/19 12:05:22;;;;;;;4.07;0.63;;;21.80;99.90;;;;;;5081924;28;20037;-88
2023/07/19 12:07:50;;;;;;;5.97;0.70;;;21.70;99.90;;;;;;5065536;28;20111;-86
2023/07/19 12:10:17;;;;;;;2.72;0.60;;;21.70;99.90;;;;;;5081107;28;20048;-87
2023/07/19 12:12:44;;;;;;;5.65;0.60;;;21.50;99.90;;;;;;5081628;28;20087;-86
2023/07/19 12:15:11;;;;;;;7.38;0.70;;;21.70;99.90;;;;;;5081702;28;20045;-86
2023/07/19 12:17:38;;;;;;;3.10;0.50;;;21.80;99.90;;;;;;5081113;28;20053;-86
2023/07/19 12:20:06;;;;;;;6.18;0.50;;;21.90;99.90;;;;;;5078952;28;20044;-89
2023/07/19 12:22:34;;;;;;;2.38;0.50;;;21.60;99.90;;;;;;5064759;28;20037;-86
2023/07/19 12:25:00;;;;;;;3.78;0.80;;;21.40;99.90;;;;;;5049334;28;20136;-86
2023/07/19 12:27:26;;;;;;;4.82;0.55;;;21.40;99.90;;;;;;5080333;28;20136;-86
2023/07/19 12:29:52;;;;;;;2.63;0.55;;;21.40;99.90;;;;;;5048179;28;20045;-85
2023/07/19 12:32:18;;;;;;;6.15;0.88;;;21.50;99.90;;;;;;5063586;28;20095;-85
2023/07/19 12:34:45;;;;;;;4.00;0.70;;;21.70;99.90;;;;;;5049310;28;20048;-86
2023/07/19 12:37:12;;;;;;;3.03;0.40;;;22.00;99.90;;;;;;5081958;28;20052;-85
2023/07/19 12:39:41;;;;;;;1.85;0.35;;;22.10;99.90;;;;;;5029502;28;20386;-84
2023/07/19 12:42:08;;;;;;;1.45;0.50;;;22.20;99.90;;;;;;5048635;28;20345;-84
2023/07/19 12:44:35;;;;;;;4.65;0.43;;;22.10;99.90;;;;;;5064333;28;20080;-84